Portada
METAR-TAF:

METAR-TAF

Aeroports :

Hawarden, Gal·les

latitud: 53-10N, longitud: 002-59W, altitud: 10 m

Observació

L'informe es va fer fa 3 hores i 29 minuts, a les 17:50 UTC
Vent 4 kt del Sud-Est
Temperatura 26°C
Humitat 45%
Pressió 1016 hPa
Visibilitat 10 km o més
sense núvols per sota de 1500 mi sense presència de cumulonimbus.

METAR: EGNR 241750Z 14004KT CAVOK 26/13 Q1016

Hora: 22:19 (21:19 UTC)

Pronòstic

L'informe es va fer fa 4 hores i 22 minuts, a les 16:57 UTC
Pronòstic vàlid del 24 a les 18 UTC al 24 a les 20 UTC
Vent 6 kt del Sud-Est
Visibilitat 10 km o més
Escasses núvols a una alçada de 4500 ft

TAF: EGNR 241657Z 2418/2420 14006KT 9999 FEW045

Observacions i pronòstics meteorològics de més de 4000 aeroports (METAR i TAF).

Les estacions disponibles són els punts grocs i vermells al mapa.

Posi el ratolí al punt desitjat per veure el nom de l'estació.

Feu clic per veure les observacions i els pronòstics meteorològics.

Per canviar el mapa: feu clic els botons verds amb una creu de color negre per apropar; al botó verd amb un guió per allunyar la imatge; o en les fletxes verdes per a mapes adjacents.


METAR-TAF: